sensor_id;sensor_type;location;lat;lon;timestamp;P1;durP1;ratioP1;P2;durP2;ratioP2
31848;SDS011;18414;59.352;18.152;2022-12-10T00:00:34;5.10;;;3.20;;
31848;SDS011;18414;59.352;18.152;2022-12-10T00:03:00;4.43;;;3.27;;
31848;SDS011;18414;59.352;18.152;2022-12-10T00:05:26;4.40;;;3.10;;
31848;SDS011;18414;59.352;18.152;2022-12-10T00:07:51;4.60;;;3.30;;
31848;SDS011;18414;59.352;18.152;2022-12-10T00:10:16;3.73;;;2.63;;
31848;SDS011;18414;59.352;18.152;2022-12-10T00:12:42;5.90;;;3.20;;
31848;SDS011;18414;59.352;18.152;2022-12-10T00:15:07;6.60;;;3.10;;
31848;SDS011;18414;59.352;18.152;2022-12-10T00:17:33;4.47;;;3.00;;
31848;SDS011;18414;59.352;18.152;2022-12-10T00:19:58;3.47;;;2.60;;
31848;SDS011;18414;59.352;18.152;2022-12-10T00:22:23;3.77;;;2.97;;
31848;SDS011;18414;59.352;18.152;2022-12-10T00:24:49;4.37;;;2.97;;
31848;SDS011;18414;59.352;18.152;2022-12-10T00:27:14;4.10;;;3.10;;
31848;SDS011;18414;59.352;18.152;2022-12-10T00:29:39;4.60;;;2.83;;
31848;SDS011;18414;59.352;18.152;2022-12-10T00:32:07;3.70;;;2.70;;
31848;SDS011;18414;59.352;18.152;2022-12-10T00:34:32;4.37;;;3.37;;
31848;SDS011;18414;59.352;18.152;2022-12-10T00:36:58;3.80;;;2.87;;
31848;SDS011;18414;59.352;18.152;2022-12-10T00:39:23;6.53;;;3.20;;
31848;SDS011;18414;59.352;18.152;2022-12-10T00:41:48;3.43;;;2.53;;
31848;SDS011;18414;59.352;18.152;2022-12-10T00:44:14;3.50;;;2.70;;
31848;SDS011;18414;59.352;18.152;2022-12-10T00:46:40;3.50;;;2.60;;
31848;SDS011;18414;59.352;18.152;2022-12-10T00:49:05;3.20;;;2.53;;
31848;SDS011;18414;59.352;18.152;2022-12-10T00:51:31;2.80;;;2.37;;
31848;SDS011;18414;59.352;18.152;2022-12-10T00:53:56;2.80;;;2.50;;
31848;SDS011;18414;59.352;18.152;2022-12-10T00:56:24;3.83;;;2.70;;
31848;SDS011;18414;59.352;18.152;2022-12-10T00:58:51;4.57;;;2.57;;
31848;SDS011;18414;59.352;18.152;2022-12-10T01:01:19;2.90;;;2.47;;
31848;SDS011;18414;59.352;18.152;2022-12-10T01:03:45;5.40;;;2.90;;
31848;SDS011;18414;59.352;18.152;2022-12-10T01:06:22;3.47;;;2.70;;
31848;SDS011;18414;59.352;18.152;2022-12-10T01:08:49;4.27;;;3.00;;
31848;SDS011;18414;59.352;18.152;2022-12-10T01:11:16;4.43;;;3.03;;
31848;SDS011;18414;59.352;18.152;2022-12-10T01:13:43;3.73;;;2.67;;
31848;SDS011;18414;59.352;18.152;2022-12-10T01:16:09;3.90;;;2.97;;
31848;SDS011;18414;59.352;18.152;2022-12-10T01:18:36;3.83;;;2.87;;
31848;SDS011;18414;59.352;18.152;2022-12-10T01:21:07;4.13;;;3.00;;
31848;SDS011;18414;59.352;18.152;2022-12-10T01:23:38;4.53;;;3.10;;
31848;SDS011;18414;59.352;18.152;2022-12-10T01:26:05;4.43;;;3.00;;
31848;SDS011;18414;59.352;18.152;2022-12-10T01:28:33;5.50;;;3.50;;
31848;SDS011;18414;59.352;18.152;2022-12-10T01:31:01;5.27;;;3.10;;
31848;SDS011;18414;59.352;18.152;2022-12-10T01:33:30;4.77;;;3.53;;
31848;SDS011;18414;59.352;18.152;2022-12-10T01:35:57;5.00;;;2.80;;
31848;SDS011;18414;59.352;18.152;2022-12-10T01:38:28;3.90;;;3.07;;
31848;SDS011;18414;59.352;18.152;2022-12-10T01:40:53;5.23;;;3.00;;
31848;SDS011;18414;59.352;18.152;2022-12-10T01:43:18;4.27;;;3.10;;
31848;SDS011;18414;59.352;18.152;2022-12-10T01:45:44;5.10;;;3.37;;
31848;SDS011;18414;59.352;18.152;2022-12-10T01:48:09;3.80;;;3.00;;
31848;SDS011;18414;59.352;18.152;2022-12-10T01:50:35;4.77;;;3.03;;
31848;SDS011;18414;59.352;18.152;2022-12-10T01:53:00;5.77;;;3.37;;
31848;SDS011;18414;59.352;18.152;2022-12-10T01:58:18;4.93;;;3.30;;
31848;SDS011;18414;59.352;18.152;2022-12-10T02:00:46;6.77;;;3.13;;
31848;SDS011;18414;59.352;18.152;2022-12-10T02:04:09;6.03;;;2.97;;
31848;SDS011;18414;59.352;18.152;2022-12-10T02:06:55;3.93;;;3.00;;
31848;SDS011;18414;59.352;18.152;2022-12-10T02:12:12;4.93;;;3.33;;
31848;SDS011;18414;59.352;18.152;2022-12-10T02:20:28;5.53;;;3.40;;
31848;SDS011;18414;59.352;18.152;2022-12-10T02:23:01;4.53;;;3.07;;
31848;SDS011;18414;59.352;18.152;2022-12-10T02:25:39;6.30;;;3.43;;
31848;SDS011;18414;59.352;18.152;2022-12-10T02:28:12;4.37;;;3.10;;
31848;SDS011;18414;59.352;18.152;2022-12-10T02:30:43;3.63;;;2.93;;
31848;SDS011;18414;59.352;18.152;2022-12-10T02:33:09;6.93;;;3.20;;
31848;SDS011;18414;59.352;18.152;2022-12-10T02:35:37;4.37;;;3.10;;
31848;SDS011;18414;59.352;18.152;2022-12-10T02:38:06;5.83;;;3.40;;
31848;SDS011;18414;59.352;18.152;2022-12-10T02:40:34;3.83;;;2.83;;
31848;SDS011;18414;59.352;18.152;2022-12-10T02:43:01;7.40;;;3.30;;
31848;SDS011;18414;59.352;18.152;2022-12-10T02:45:27;5.77;;;3.40;;
31848;SDS011;18414;59.352;18.152;2022-12-10T02:47:54;3.67;;;2.90;;
31848;SDS011;18414;59.352;18.152;2022-12-10T02:50:21;4.57;;;2.93;;
31848;SDS011;18414;59.352;18.152;2022-12-10T02:52:47;4.03;;;3.03;;
31848;SDS011;18414;59.352;18.152;2022-12-10T02:55:13;4.40;;;3.00;;
31848;SDS011;18414;59.352;18.152;2022-12-10T03:00:29;4.40;;;3.33;;
31848;SDS011;18414;59.352;18.152;2022-12-10T03:03:12;4.37;;;2.87;;
31848;SDS011;18414;59.352;18.152;2022-12-10T03:11:17;4.17;;;2.70;;
31848;SDS011;18414;59.352;18.152;2022-12-10T03:16:54;6.07;;;3.37;;
31848;SDS011;18414;59.352;18.152;2022-12-10T03:19:21;4.43;;;2.90;;
31848;SDS011;18414;59.352;18.152;2022-12-10T03:21:51;3.67;;;2.90;;
31848;SDS011;18414;59.352;18.152;2022-12-10T03:24:17;5.57;;;3.40;;
31848;SDS011;18414;59.352;18.152;2022-12-10T03:26:43;4.60;;;3.03;;
31848;SDS011;18414;59.352;18.152;2022-12-10T03:29:13;4.13;;;2.70;;
31848;SDS011;18414;59.352;18.152;2022-12-10T03:31:40;4.10;;;3.07;;
31848;SDS011;18414;59.352;18.152;2022-12-10T03:34:07;5.33;;;3.30;;
31848;SDS011;18414;59.352;18.152;2022-12-10T03:36:33;5.87;;;3.13;;
31848;SDS011;18414;59.352;18.152;2022-12-10T03:38:59;3.70;;;2.80;;
31848;SDS011;18414;59.352;18.152;2022-12-10T03:41:25;4.83;;;3.20;;
31848;SDS011;18414;59.352;18.152;2022-12-10T03:43:51;5.33;;;3.30;;
31848;SDS011;18414;59.352;18.152;2022-12-10T03:46:17;4.83;;;3.67;;
31848;SDS011;18414;59.352;18.152;2022-12-10T03:48:43;4.20;;;3.23;;
31848;SDS011;18414;59.352;18.152;2022-12-10T03:51:09;3.63;;;2.73;;
31848;SDS011;18414;59.352;18.152;2022-12-10T03:53:35;3.47;;;2.50;;
31848;SDS011;18414;59.352;18.152;2022-12-10T03:56:00;3.80;;;2.30;;
31848;SDS011;18414;59.352;18.152;2022-12-10T03:58:25;3.63;;;2.60;;
31848;SDS011;18414;59.352;18.152;2022-12-10T04:00:51;3.30;;;2.70;;
31848;SDS011;18414;59.352;18.152;2022-12-10T04:03:16;2.93;;;2.53;;
31848;SDS011;18414;59.352;18.152;2022-12-10T04:05:41;3.80;;;2.50;;
31848;SDS011;18414;59.352;18.152;2022-12-10T04:08:07;2.67;;;1.93;;
31848;SDS011;18414;59.352;18.152;2022-12-10T04:10:36;3.10;;;2.13;;
31848;SDS011;18414;59.352;18.152;2022-12-10T04:13:02;2.70;;;2.30;;
31848;SDS011;18414;59.352;18.152;2022-12-10T04:15:46;3.40;;;2.30;;
31848;SDS011;18414;59.352;18.152;2022-12-10T04:18:30;2.63;;;2.10;;
31848;SDS011;18414;59.352;18.152;2022-12-10T04:20:56;2.27;;;1.67;;
31848;SDS011;18414;59.352;18.152;2022-12-10T04:23:40;3.57;;;2.37;;
31848;SDS011;18414;59.352;18.152;2022-12-10T04:26:24;2.57;;;2.07;;
31848;SDS011;18414;59.352;18.152;2022-12-10T04:29:08;3.13;;;2.43;;
31848;SDS011;18414;59.352;18.152;2022-12-10T04:31:34;2.53;;;2.20;;
31848;SDS011;18414;59.352;18.152;2022-12-10T04:33:59;2.80;;;2.43;;
31848;SDS011;18414;59.352;18.152;2022-12-10T04:36:24;3.03;;;2.60;;
31848;SDS011;18414;59.352;18.152;2022-12-10T04:38:50;3.07;;;2.50;;
31848;SDS011;18414;59.352;18.152;2022-12-10T04:41:15;4.27;;;2.60;;
31848;SDS011;18414;59.352;18.152;2022-12-10T04:43:41;3.00;;;2.47;;
31848;SDS011;18414;59.352;18.152;2022-12-10T04:46:07;3.63;;;2.70;;
31848;SDS011;18414;59.352;18.152;2022-12-10T04:48:33;3.07;;;2.47;;
31848;SDS011;18414;59.352;18.152;2022-12-10T04:50:58;3.30;;;2.67;;
31848;SDS011;18414;59.352;18.152;2022-12-10T04:53:24;2.67;;;2.43;;
31848;SDS011;18414;59.352;18.152;2022-12-10T04:55:49;4.70;;;2.70;;
31848;SDS011;18414;59.352;18.152;2022-12-10T04:58:14;3.13;;;2.63;;
31848;SDS011;18414;59.352;18.152;2022-12-10T05:00:40;2.93;;;2.00;;
31848;SDS011;18414;59.352;18.152;2022-12-10T05:03:05;2.90;;;2.23;;
31848;SDS011;18414;59.352;18.152;2022-12-10T05:05:33;2.57;;;2.27;;
31848;SDS011;18414;59.352;18.152;2022-12-10T05:07:59;2.43;;;2.23;;
31848;SDS011;18414;59.352;18.152;2022-12-10T05:10:25;2.63;;;2.27;;
31848;SDS011;18414;59.352;18.152;2022-12-10T05:12:51;3.20;;;2.43;;
31848;SDS011;18414;59.352;18.152;2022-12-10T05:15:17;3.43;;;2.53;;
31848;SDS011;18414;59.352;18.152;2022-12-10T05:17:42;2.97;;;2.60;;
31848;SDS011;18414;59.352;18.152;2022-12-10T05:20:08;2.73;;;2.17;;
31848;SDS011;18414;59.352;18.152;2022-12-10T05:22:34;3.43;;;2.20;;
31848;SDS011;18414;59.352;18.152;2022-12-10T05:25:18;3.00;;;2.20;;
31848;SDS011;18414;59.352;18.152;2022-12-10T05:27:43;2.57;;;2.30;;
31848;SDS011;18414;59.352;18.152;2022-12-10T05:30:08;2.20;;;1.73;;
31848;SDS011;18414;59.352;18.152;2022-12-10T05:32:35;2.60;;;2.00;;
31848;SDS011;18414;59.352;18.152;2022-12-10T05:35:00;3.63;;;1.97;;
31848;SDS011;18414;59.352;18.152;2022-12-10T05:37:25;1.67;;;1.57;;
31848;SDS011;18414;59.352;18.152;2022-12-10T05:39:52;2.40;;;2.10;;
31848;SDS011;18414;59.352;18.152;2022-12-10T05:42:17;2.93;;;2.30;;
31848;SDS011;18414;59.352;18.152;2022-12-10T05:44:43;3.67;;;2.60;;
31848;SDS011;18414;59.352;18.152;2022-12-10T05:47:08;2.87;;;2.33;;
31848;SDS011;18414;59.352;18.152;2022-12-10T05:49:33;3.47;;;2.40;;
31848;SDS011;18414;59.352;18.152;2022-12-10T05:51:59;2.60;;;2.23;;
31848;SDS011;18414;59.352;18.152;2022-12-10T05:54:24;3.00;;;2.30;;
31848;SDS011;18414;59.352;18.152;2022-12-10T05:56:50;2.83;;;2.33;;
31848;SDS011;18414;59.352;18.152;2022-12-10T05:59:15;3.27;;;2.20;;
31848;SDS011;18414;59.352;18.152;2022-12-10T06:01:40;2.97;;;2.17;;
31848;SDS011;18414;59.352;18.152;2022-12-10T06:04:06;3.10;;;2.60;;
31848;SDS011;18414;59.352;18.152;2022-12-10T06:06:33;2.70;;;2.30;;
31848;SDS011;18414;59.352;18.152;2022-12-10T06:09:00;3.80;;;2.50;;
31848;SDS011;18414;59.352;18.152;2022-12-10T06:11:26;2.63;;;2.30;;
31848;SDS011;18414;59.352;18.152;2022-12-10T06:13:52;2.83;;;2.40;;
31848;SDS011;18414;59.352;18.152;2022-12-10T06:16:18;3.27;;;2.37;;
31848;SDS011;18414;59.352;18.152;2022-12-10T06:18:43;3.70;;;2.50;;
31848;SDS011;18414;59.352;18.152;2022-12-10T06:21:10;2.87;;;2.20;;
31848;SDS011;18414;59.352;18.152;2022-12-10T06:23:37;3.73;;;2.30;;
31848;SDS011;18414;59.352;18.152;2022-12-10T06:26:05;3.37;;;2.00;;
31848;SDS011;18414;59.352;18.152;2022-12-10T06:28:35;2.53;;;2.07;;
31848;SDS011;18414;59.352;18.152;2022-12-10T06:31:01;3.17;;;2.40;;
31848;SDS011;18414;59.352;18.152;2022-12-10T06:33:27;3.43;;;2.13;;
31848;SDS011;18414;59.352;18.152;2022-12-10T06:35:53;3.03;;;2.00;;
31848;SDS011;18414;59.352;18.152;2022-12-10T06:38:19;2.57;;;1.93;;
31848;SDS011;18414;59.352;18.152;2022-12-10T06:40:44;2.10;;;1.90;;
31848;SDS011;18414;59.352;18.152;2022-12-10T06:43:09;2.23;;;2.00;;
31848;SDS011;18414;59.352;18.152;2022-12-10T06:45:39;2.47;;;1.90;;
31848;SDS011;18414;59.352;18.152;2022-12-10T06:48:05;2.53;;;2.10;;
31848;SDS011;18414;59.352;18.152;2022-12-10T06:50:30;2.63;;;1.90;;
31848;SDS011;18414;59.352;18.152;2022-12-10T06:52:56;3.53;;;1.90;;
31848;SDS011;18414;59.352;18.152;2022-12-10T06:55:21;2.17;;;1.80;;
31848;SDS011;18414;59.352;18.152;2022-12-10T06:57:50;2.97;;;2.30;;
31848;SDS011;18414;59.352;18.152;2022-12-10T07:00:16;2.47;;;2.00;;
31848;SDS011;18414;59.352;18.152;2022-12-10T07:02:42;2.87;;;2.00;;
31848;SDS011;18414;59.352;18.152;2022-12-10T07:05:07;2.50;;;2.10;;
31848;SDS011;18414;59.352;18.152;2022-12-10T07:07:33;3.20;;;2.30;;
31848;SDS011;18414;59.352;18.152;2022-12-10T07:09:59;2.37;;;2.10;;
31848;SDS011;18414;59.352;18.152;2022-12-10T07:12:25;3.20;;;2.03;;
31848;SDS011;18414;59.352;18.152;2022-12-10T07:14:50;5.77;;;2.63;;
31848;SDS011;18414;59.352;18.152;2022-12-10T07:17:15;2.57;;;1.90;;
31848;SDS011;18414;59.352;18.152;2022-12-10T07:19:41;3.63;;;2.50;;
31848;SDS011;18414;59.352;18.152;2022-12-10T07:22:06;3.60;;;2.40;;
31848;SDS011;18414;59.352;18.152;2022-12-10T07:24:31;2.77;;;2.40;;
31848;SDS011;18414;59.352;18.152;2022-12-10T07:26:57;3.10;;;2.13;;
31848;SDS011;18414;59.352;18.152;2022-12-10T07:29:22;2.43;;;2.10;;
31848;SDS011;18414;59.352;18.152;2022-12-10T07:31:48;3.30;;;2.50;;
31848;SDS011;18414;59.352;18.152;2022-12-10T07:34:14;2.73;;;2.43;;
31848;SDS011;18414;59.352;18.152;2022-12-10T07:36:40;3.70;;;2.37;;
31848;SDS011;18414;59.352;18.152;2022-12-10T07:39:06;2.53;;;2.33;;
31848;SDS011;18414;59.352;18.152;2022-12-10T07:41:33;2.40;;;1.90;;
31848;SDS011;18414;59.352;18.152;2022-12-10T07:43:59;2.63;;;2.27;;
31848;SDS011;18414;59.352;18.152;2022-12-10T07:46:26;3.57;;;2.40;;
31848;SDS011;18414;59.352;18.152;2022-12-10T07:48:53;2.87;;;2.30;;
31848;SDS011;18414;59.352;18.152;2022-12-10T07:51:20;2.57;;;2.23;;
31848;SDS011;18414;59.352;18.152;2022-12-10T07:53:46;3.03;;;2.50;;
31848;SDS011;18414;59.352;18.152;2022-12-10T07:56:12;3.70;;;2.53;;
31848;SDS011;18414;59.352;18.152;2022-12-10T07:58:41;2.77;;;2.17;;
31848;SDS011;18414;59.352;18.152;2022-12-10T08:01:08;3.10;;;2.37;;
31848;SDS011;18414;59.352;18.152;2022-12-10T08:03:35;3.73;;;2.60;;
31848;SDS011;18414;59.352;18.152;2022-12-10T08:08:57;4.10;;;2.77;;
31848;SDS011;18414;59.352;18.152;2022-12-10T08:11:23;3.90;;;2.60;;
31848;SDS011;18414;59.352;18.152;2022-12-10T08:13:48;3.53;;;2.67;;
31848;SDS011;18414;59.352;18.152;2022-12-10T08:16:15;3.70;;;2.23;;
31848;SDS011;18414;59.352;18.152;2022-12-10T08:18:42;4.43;;;2.77;;
31848;SDS011;18414;59.352;18.152;2022-12-10T08:21:18;3.47;;;2.60;;
31848;SDS011;18414;59.352;18.152;2022-12-10T08:23:46;3.03;;;2.33;;
31848;SDS011;18414;59.352;18.152;2022-12-10T08:26:13;3.70;;;2.57;;
31848;SDS011;18414;59.352;18.152;2022-12-10T08:28:42;3.37;;;2.87;;
31848;SDS011;18414;59.352;18.152;2022-12-10T08:31:09;4.47;;;2.93;;
31848;SDS011;18414;59.352;18.152;2022-12-10T08:33:36;4.10;;;3.03;;
31848;SDS011;18414;59.352;18.152;2022-12-10T08:36:02;3.23;;;2.93;;
31848;SDS011;18414;59.352;18.152;2022-12-10T08:38:29;3.93;;;2.80;;
31848;SDS011;18414;59.352;18.152;2022-12-10T08:40:54;3.30;;;2.50;;
31848;SDS011;18414;59.352;18.152;2022-12-10T08:43:20;3.07;;;2.70;;
31848;SDS011;18414;59.352;18.152;2022-12-10T08:45:45;3.60;;;2.90;;
31848;SDS011;18414;59.352;18.152;2022-12-10T08:48:11;4.33;;;2.80;;
31848;SDS011;18414;59.352;18.152;2022-12-10T08:50:36;3.93;;;2.73;;
31848;SDS011;18414;59.352;18.152;2022-12-10T08:53:04;3.83;;;2.63;;
31848;SDS011;18414;59.352;18.152;2022-12-10T08:55:29;3.77;;;2.50;;
31848;SDS011;18414;59.352;18.152;2022-12-10T08:57:57;4.63;;;3.10;;
31848;SDS011;18414;59.352;18.152;2022-12-10T09:00:23;4.13;;;2.53;;
31848;SDS011;18414;59.352;18.152;2022-12-10T09:02:49;5.47;;;2.80;;
31848;SDS011;18414;59.352;18.152;2022-12-10T09:05:14;4.37;;;2.80;;
31848;SDS011;18414;59.352;18.152;2022-12-10T09:07:40;3.40;;;2.80;;
31848;SDS011;18414;59.352;18.152;2022-12-10T09:10:05;5.17;;;3.10;;
31848;SDS011;18414;59.352;18.152;2022-12-10T09:12:34;4.07;;;2.80;;
31848;SDS011;18414;59.352;18.152;2022-12-10T09:15:00;4.53;;;2.90;;
31848;SDS011;18414;59.352;18.152;2022-12-10T09:17:25;4.33;;;2.93;;
31848;SDS011;18414;59.352;18.152;2022-12-10T09:19:51;5.67;;;3.03;;
31848;SDS011;18414;59.352;18.152;2022-12-10T09:22:17;5.37;;;3.50;;
31848;SDS011;18414;59.352;18.152;2022-12-10T09:24:43;3.70;;;2.77;;
31848;SDS011;18414;59.352;18.152;2022-12-10T09:27:08;4.23;;;3.20;;
31848;SDS011;18414;59.352;18.152;2022-12-10T09:29:34;4.57;;;2.67;;
31848;SDS011;18414;59.352;18.152;2022-12-10T09:31:59;4.30;;;2.90;;
31848;SDS011;18414;59.352;18.152;2022-12-10T09:34:24;3.43;;;2.70;;
31848;SDS011;18414;59.352;18.152;2022-12-10T09:36:50;4.33;;;3.20;;
31848;SDS011;18414;59.352;18.152;2022-12-10T09:39:15;3.67;;;2.97;;
31848;SDS011;18414;59.352;18.152;2022-12-10T09:44:31;4.10;;;3.10;;
31848;SDS011;18414;59.352;18.152;2022-12-10T09:47:07;4.70;;;3.37;;
31848;SDS011;18414;59.352;18.152;2022-12-10T09:52:19;5.03;;;3.00;;
31848;SDS011;18414;59.352;18.152;2022-12-10T09:54:49;4.90;;;3.20;;
31848;SDS011;18414;59.352;18.152;2022-12-10T09:57:19;5.07;;;3.10;;
31848;SDS011;18414;59.352;18.152;2022-12-10T09:59:48;5.13;;;3.37;;
31848;SDS011;18414;59.352;18.152;2022-12-10T10:04:50;4.80;;;3.10;;
31848;SDS011;18414;59.352;18.152;2022-12-10T10:07:24;4.90;;;3.13;;
31848;SDS011;18414;59.352;18.152;2022-12-10T10:09:55;4.47;;;3.30;;
31848;SDS011;18414;59.352;18.152;2022-12-10T10:12:22;5.73;;;3.37;;
31848;SDS011;18414;59.352;18.152;2022-12-10T10:14:48;3.53;;;2.87;;
31848;SDS011;18414;59.352;18.152;2022-12-10T10:17:19;3.80;;;3.00;;
31848;SDS011;18414;59.352;18.152;2022-12-10T10:19:46;5.47;;;3.07;;
31848;SDS011;18414;59.352;18.152;2022-12-10T10:22:12;4.37;;;3.23;;
31848;SDS011;18414;59.352;18.152;2022-12-10T10:24:42;5.60;;;3.13;;
31848;SDS011;18414;59.352;18.152;2022-12-10T10:27:14;5.17;;;3.37;;
31848;SDS011;18414;59.352;18.152;2022-12-10T10:29:43;5.63;;;3.40;;
31848;SDS011;18414;59.352;18.152;2022-12-10T10:32:14;4.23;;;3.03;;
31848;SDS011;18414;59.352;18.152;2022-12-10T10:34:39;4.10;;;3.17;;
31848;SDS011;18414;59.352;18.152;2022-12-10T10:37:05;6.60;;;3.40;;
31848;SDS011;18414;59.352;18.152;2022-12-10T10:39:32;3.93;;;3.43;;
31848;SDS011;18414;59.352;18.152;2022-12-10T10:42:06;4.23;;;3.40;;
31848;SDS011;18414;59.352;18.152;2022-12-10T10:44:34;4.70;;;3.30;;
31848;SDS011;18414;59.352;18.152;2022-12-10T10:47:00;3.83;;;3.00;;
31848;SDS011;18414;59.352;18.152;2022-12-10T10:49:28;3.43;;;2.60;;
31848;SDS011;18414;59.352;18.152;2022-12-10T10:52:00;4.63;;;3.27;;
31848;SDS011;18414;59.352;18.152;2022-12-10T10:56:58;4.73;;;3.40;;
31848;SDS011;18414;59.352;18.152;2022-12-10T10:59:34;3.17;;;2.70;;
31848;SDS011;18414;59.352;18.152;2022-12-10T11:02:04;3.83;;;2.67;;
31848;SDS011;18414;59.352;18.152;2022-12-10T11:04:45;3.83;;;2.60;;
31848;SDS011;18414;59.352;18.152;2022-12-10T11:09:49;3.97;;;3.47;;
31848;SDS011;18414;59.352;18.152;2022-12-10T11:12:31;4.30;;;2.90;;
31848;SDS011;18414;59.352;18.152;2022-12-10T11:14:59;3.73;;;3.10;;
31848;SDS011;18414;59.352;18.152;2022-12-10T11:17:25;4.77;;;3.20;;
31848;SDS011;18414;59.352;18.152;2022-12-10T11:19:59;3.70;;;2.67;;
31848;SDS011;18414;59.352;18.152;2022-12-10T11:22:40;4.27;;;3.17;;
31848;SDS011;18414;59.352;18.152;2022-12-10T11:25:14;4.50;;;3.43;;
31848;SDS011;18414;59.352;18.152;2022-12-10T11:32:38;4.60;;;3.00;;
31848;SDS011;18414;59.352;18.152;2022-12-10T11:35:14;4.53;;;3.10;;
31848;SDS011;18414;59.352;18.152;2022-12-10T11:37:49;3.33;;;2.30;;
31848;SDS011;18414;59.352;18.152;2022-12-10T11:40:25;4.90;;;2.93;;
31848;SDS011;18414;59.352;18.152;2022-12-10T11:56:52;4.23;;;3.33;;
31848;SDS011;18414;59.352;18.152;2022-12-10T11:59:28;4.83;;;3.27;;
31848;SDS011;18414;59.352;18.152;2022-12-10T12:02:07;5.37;;;2.80;;
31848;SDS011;18414;59.352;18.152;2022-12-10T12:13:34;4.20;;;2.90;;
31848;SDS011;18414;59.352;18.152;2022-12-10T12:16:19;7.17;;;3.37;;
31848;SDS011;18414;59.352;18.152;2022-12-10T12:18:57;4.30;;;2.90;;
31848;SDS011;18414;59.352;18.152;2022-12-10T12:21:25;4.13;;;3.07;;
31848;SDS011;18414;59.352;18.152;2022-12-10T12:26:38;5.00;;;2.97;;
31848;SDS011;18414;59.352;18.152;2022-12-10T12:31:40;3.40;;;2.70;;
31848;SDS011;18414;59.352;18.152;2022-12-10T12:34:17;4.37;;;2.70;;
31848;SDS011;18414;59.352;18.152;2022-12-10T12:36:44;3.73;;;2.67;;
31848;SDS011;18414;59.352;18.152;2022-12-10T12:39:13;3.77;;;2.53;;
31848;SDS011;18414;59.352;18.152;2022-12-10T12:44:28;5.40;;;2.93;;
31848;SDS011;18414;59.352;18.152;2022-12-10T12:47:20;3.93;;;2.43;;
31848;SDS011;18414;59.352;18.152;2022-12-10T12:49:49;3.23;;;2.63;;
31848;SDS011;18414;59.352;18.152;2022-12-10T12:54:57;5.00;;;2.67;;
31848;SDS011;18414;59.352;18.152;2022-12-10T12:57:44;3.87;;;2.77;;
31848;SDS011;18414;59.352;18.152;2022-12-10T13:00:12;3.83;;;2.67;;
31848;SDS011;18414;59.352;18.152;2022-12-10T13:05:42;3.50;;;2.53;;
31848;SDS011;18414;59.352;18.152;2022-12-10T13:10:44;4.47;;;2.80;;
31848;SDS011;18414;59.352;18.152;2022-12-10T13:13:27;5.37;;;2.90;;
31848;SDS011;18414;59.352;18.152;2022-12-10T13:24:21;5.60;;;3.73;;
31848;SDS011;18414;59.352;18.152;2022-12-10T13:42:58;3.80;;;2.87;;
31848;SDS011;18414;59.352;18.152;2022-12-10T13:46:22;4.97;;;2.77;;
31848;SDS011;18414;59.352;18.152;2022-12-10T13:48:55;4.43;;;2.33;;
31848;SDS011;18414;59.352;18.152;2022-12-10T13:51:29;3.47;;;2.67;;
31848;SDS011;18414;59.352;18.152;2022-12-10T13:54:03;3.73;;;2.60;;
31848;SDS011;18414;59.352;18.152;2022-12-10T13:56:41;3.30;;;2.40;;
31848;SDS011;18414;59.352;18.152;2022-12-10T13:59:24;2.90;;;2.30;;
31848;SDS011;18414;59.352;18.152;2022-12-10T14:04:45;3.67;;;2.40;;
31848;SDS011;18414;59.352;18.152;2022-12-10T14:07:16;4.17;;;2.60;;
31848;SDS011;18414;59.352;18.152;2022-12-10T14:09:45;3.53;;;2.50;;
31848;SDS011;18414;59.352;18.152;2022-12-10T14:12:14;4.63;;;2.70;;
31848;SDS011;18414;59.352;18.152;2022-12-10T14:14:43;3.50;;;2.57;;
31848;SDS011;18414;59.352;18.152;2022-12-10T14:17:15;5.50;;;3.20;;
31848;SDS011;18414;59.352;18.152;2022-12-10T14:19:45;4.00;;;2.47;;
31848;SDS011;18414;59.352;18.152;2022-12-10T14:22:19;3.73;;;2.50;;
31848;SDS011;18414;59.352;18.152;2022-12-10T14:24:54;1.60;;;1.20;;
31848;SDS011;18414;59.352;18.152;2022-12-10T14:27:24;3.67;;;2.70;;
31848;SDS011;18414;59.352;18.152;2022-12-10T14:30:02;4.27;;;2.50;;
31848;SDS011;18414;59.352;18.152;2022-12-10T14:32:36;3.50;;;2.30;;
31848;SDS011;18414;59.352;18.152;2022-12-10T14:35:03;3.93;;;2.57;;
31848;SDS011;18414;59.352;18.152;2022-12-10T14:37:31;2.97;;;2.20;;
31848;SDS011;18414;59.352;18.152;2022-12-10T14:39:59;2.20;;;1.87;;
31848;SDS011;18414;59.352;18.152;2022-12-10T14:42:26;3.67;;;2.50;;
31848;SDS011;18414;59.352;18.152;2022-12-10T14:44:59;4.27;;;2.40;;
31848;SDS011;18414;59.352;18.152;2022-12-10T14:47:26;3.77;;;2.77;;
31848;SDS011;18414;59.352;18.152;2022-12-10T14:49:53;4.17;;;2.70;;
31848;SDS011;18414;59.352;18.152;2022-12-10T14:52:20;3.47;;;2.30;;
31848;SDS011;18414;59.352;18.152;2022-12-10T14:54:47;3.40;;;2.60;;
31848;SDS011;18414;59.352;18.152;2022-12-10T14:57:24;3.33;;;2.43;;
31848;SDS011;18414;59.352;18.152;2022-12-10T15:02:44;3.77;;;2.67;;
31848;SDS011;18414;59.352;18.152;2022-12-10T15:07:57;3.73;;;2.10;;
31848;SDS011;18414;59.352;18.152;2022-12-10T15:10:38;3.50;;;2.43;;
31848;SDS011;18414;59.352;18.152;2022-12-10T15:13:06;3.83;;;2.80;;
31848;SDS011;18414;59.352;18.152;2022-12-10T15:15:38;3.90;;;2.37;;
31848;SDS011;18414;59.352;18.152;2022-12-10T15:20:37;3.10;;;2.50;;
31848;SDS011;18414;59.352;18.152;2022-12-10T15:28:24;3.70;;;2.57;;
31848;SDS011;18414;59.352;18.152;2022-12-10T15:30:51;3.63;;;2.67;;
31848;SDS011;18414;59.352;18.152;2022-12-10T15:33:42;2.80;;;2.23;;
31848;SDS011;18414;59.352;18.152;2022-12-10T15:36:17;5.47;;;2.70;;
31848;SDS011;18414;59.352;18.152;2022-12-10T15:38:44;3.03;;;2.10;;
31848;SDS011;18414;59.352;18.152;2022-12-10T15:44:25;4.33;;;2.73;;
31848;SDS011;18414;59.352;18.152;2022-12-10T15:49:50;3.93;;;2.40;;
31848;SDS011;18414;59.352;18.152;2022-12-10T15:52:18;3.77;;;2.40;;
31848;SDS011;18414;59.352;18.152;2022-12-10T15:54:44;3.30;;;2.40;;
31848;SDS011;18414;59.352;18.152;2022-12-10T15:57:15;2.30;;;1.70;;
31848;SDS011;18414;59.352;18.152;2022-12-10T15:59:42;3.60;;;2.43;;
31848;SDS011;18414;59.352;18.152;2022-12-10T16:05:00;3.53;;;2.40;;
31848;SDS011;18414;59.352;18.152;2022-12-10T16:07:26;3.93;;;2.70;;
31848;SDS011;18414;59.352;18.152;2022-12-10T16:09:51;4.17;;;2.50;;
31848;SDS011;18414;59.352;18.152;2022-12-10T16:12:17;4.70;;;2.37;;
31848;SDS011;18414;59.352;18.152;2022-12-10T16:14:50;4.60;;;2.10;;
31848;SDS011;18414;59.352;18.152;2022-12-10T16:17:20;3.63;;;2.60;;
31848;SDS011;18414;59.352;18.152;2022-12-10T16:19:45;4.93;;;2.47;;
31848;SDS011;18414;59.352;18.152;2022-12-10T16:22:11;2.97;;;2.30;;
31848;SDS011;18414;59.352;18.152;2022-12-10T16:24:36;4.03;;;2.70;;
31848;SDS011;18414;59.352;18.152;2022-12-10T16:27:05;3.30;;;2.03;;
31848;SDS011;18414;59.352;18.152;2022-12-10T16:29:36;3.90;;;2.60;;
31848;SDS011;18414;59.352;18.152;2022-12-10T16:32:02;4.00;;;2.40;;
31848;SDS011;18414;59.352;18.152;2022-12-10T16:34:27;3.93;;;2.50;;
31848;SDS011;18414;59.352;18.152;2022-12-10T16:36:52;3.50;;;2.30;;
31848;SDS011;18414;59.352;18.152;2022-12-10T16:39:17;3.70;;;2.53;;
31848;SDS011;18414;59.352;18.152;2022-12-10T16:41:43;4.30;;;2.60;;
31848;SDS011;18414;59.352;18.152;2022-12-10T16:44:09;2.70;;;2.30;;
31848;SDS011;18414;59.352;18.152;2022-12-10T16:46:35;3.80;;;2.57;;
31848;SDS011;18414;59.352;18.152;2022-12-10T16:49:00;2.83;;;2.13;;
31848;SDS011;18414;59.352;18.152;2022-12-10T16:51:26;3.40;;;2.37;;
31848;SDS011;18414;59.352;18.152;2022-12-10T16:53:56;3.00;;;2.53;;